sensor_id;sensor_type;location;lat;lon;timestamp;P1;durP1;ratioP1;P2;durP2;ratioP2
76814;SDS011;65768;49.906;19.384;2023-08-31T00:00:09;22.60;;;12.00;;
76814;SDS011;65768;49.906;19.384;2023-08-31T00:03:19;20.50;;;11.60;;
76814;SDS011;65768;49.906;19.384;2023-08-31T00:05:48;21.70;;;11.30;;
76814;SDS011;65768;49.906;19.384;2023-08-31T00:08:19;21.10;;;11.40;;
76814;SDS011;65768;49.906;19.384;2023-08-31T00:10:56;22.20;;;12.40;;
76814;SDS011;65768;49.906;19.384;2023-08-31T00:13:27;24.20;;;13.00;;
76814;SDS011;65768;49.906;19.384;2023-08-31T00:15:56;21.60;;;11.70;;
76814;SDS011;65768;49.906;19.384;2023-08-31T00:18:25;22.40;;;11.90;;
76814;SDS011;65768;49.906;19.384;2023-08-31T00:20:54;20.70;;;10.80;;
76814;SDS011;65768;49.906;19.384;2023-08-31T00:23:23;19.90;;;11.50;;
76814;SDS011;65768;49.906;19.384;2023-08-31T00:25:52;27.10;;;12.00;;
76814;SDS011;65768;49.906;19.384;2023-08-31T00:28:21;19.10;;;11.20;;
76814;SDS011;65768;49.906;19.384;2023-08-31T00:30:50;16.30;;;9.30;;
76814;SDS011;65768;49.906;19.384;2023-08-31T00:33:19;22.20;;;12.10;;
76814;SDS011;65768;49.906;19.384;2023-08-31T00:35:49;22.10;;;12.30;;
76814;SDS011;65768;49.906;19.384;2023-08-31T00:38:19;20.50;;;11.80;;
76814;SDS011;65768;49.906;19.384;2023-08-31T00:40:48;21.90;;;11.30;;
76814;SDS011;65768;49.906;19.384;2023-08-31T00:43:18;18.90;;;10.60;;
76814;SDS011;65768;49.906;19.384;2023-08-31T00:45:48;19.70;;;11.10;;
76814;SDS011;65768;49.906;19.384;2023-08-31T00:48:18;17.40;;;11.10;;
76814;SDS011;65768;49.906;19.384;2023-08-31T00:50:47;18.90;;;10.50;;
76814;SDS011;65768;49.906;19.384;2023-08-31T00:53:16;22.40;;;10.90;;
76814;SDS011;65768;49.906;19.384;2023-08-31T00:55:45;20.70;;;10.60;;
76814;SDS011;65768;49.906;19.384;2023-08-31T00:58:14;21.80;;;9.80;;
76814;SDS011;65768;49.906;19.384;2023-08-31T01:03:50;18.80;;;10.90;;
76814;SDS011;65768;49.906;19.384;2023-08-31T01:14:41;17.10;;;9.70;;
76814;SDS011;65768;49.906;19.384;2023-08-31T01:17:16;17.40;;;10.00;;
76814;SDS011;65768;49.906;19.384;2023-08-31T01:19:50;17.10;;;10.00;;
76814;SDS011;65768;49.906;19.384;2023-08-31T01:25:09;18.10;;;9.90;;
76814;SDS011;65768;49.906;19.384;2023-08-31T01:27:43;16.00;;;10.20;;
76814;SDS011;65768;49.906;19.384;2023-08-31T01:30:13;15.40;;;9.60;;
76814;SDS011;65768;49.906;19.384;2023-08-31T01:32:44;17.90;;;11.10;;
76814;SDS011;65768;49.906;19.384;2023-08-31T01:35:14;16.20;;;9.00;;
76814;SDS011;65768;49.906;19.384;2023-08-31T01:37:48;14.20;;;8.70;;
76814;SDS011;65768;49.906;19.384;2023-08-31T01:40:40;16.00;;;9.40;;
76814;SDS011;65768;49.906;19.384;2023-08-31T01:43:20;14.60;;;10.00;;
76814;SDS011;65768;49.906;19.384;2023-08-31T01:45:52;15.00;;;9.40;;
76814;SDS011;65768;49.906;19.384;2023-08-31T01:48:25;17.20;;;10.30;;
76814;SDS011;65768;49.906;19.384;2023-08-31T01:50:53;16.90;;;10.20;;
76814;SDS011;65768;49.906;19.384;2023-08-31T01:53:21;18.30;;;10.30;;
76814;SDS011;65768;49.906;19.384;2023-08-31T01:55:51;28.70;;;10.40;;
76814;SDS011;65768;49.906;19.384;2023-08-31T01:58:20;16.90;;;9.20;;
76814;SDS011;65768;49.906;19.384;2023-08-31T02:00:51;15.00;;;9.20;;
76814;SDS011;65768;49.906;19.384;2023-08-31T02:03:21;17.60;;;10.10;;
76814;SDS011;65768;49.906;19.384;2023-08-31T02:05:50;14.90;;;8.80;;
76814;SDS011;65768;49.906;19.384;2023-08-31T02:08:20;16.80;;;9.80;;
76814;SDS011;65768;49.906;19.384;2023-08-31T02:10:48;14.10;;;9.50;;
76814;SDS011;65768;49.906;19.384;2023-08-31T02:13:17;15.00;;;9.00;;
76814;SDS011;65768;49.906;19.384;2023-08-31T02:15:47;16.40;;;9.40;;
76814;SDS011;65768;49.906;19.384;2023-08-31T02:18:19;15.90;;;8.70;;
76814;SDS011;65768;49.906;19.384;2023-08-31T02:20:51;14.60;;;9.10;;
76814;SDS011;65768;49.906;19.384;2023-08-31T02:23:22;11.70;;;7.90;;
76814;SDS011;65768;49.906;19.384;2023-08-31T02:25:51;19.20;;;9.00;;
76814;SDS011;65768;49.906;19.384;2023-08-31T02:28:19;17.20;;;9.90;;
76814;SDS011;65768;49.906;19.384;2023-08-31T02:30:56;14.60;;;9.10;;
76814;SDS011;65768;49.906;19.384;2023-08-31T02:33:27;16.30;;;8.40;;
76814;SDS011;65768;49.906;19.384;2023-08-31T02:35:56;15.70;;;8.40;;
76814;SDS011;65768;49.906;19.384;2023-08-31T02:38:25;13.00;;;8.70;;
76814;SDS011;65768;49.906;19.384;2023-08-31T02:40:55;16.10;;;10.10;;
76814;SDS011;65768;49.906;19.384;2023-08-31T02:43:24;17.70;;;10.70;;
76814;SDS011;65768;49.906;19.384;2023-08-31T02:46:00;19.50;;;10.90;;
76814;SDS011;65768;49.906;19.384;2023-08-31T02:48:32;18.80;;;10.40;;
76814;SDS011;65768;49.906;19.384;2023-08-31T02:51:03;17.60;;;10.70;;
76814;SDS011;65768;49.906;19.384;2023-08-31T02:53:32;18.90;;;10.80;;
76814;SDS011;65768;49.906;19.384;2023-08-31T02:56:00;19.10;;;10.70;;
76814;SDS011;65768;49.906;19.384;2023-08-31T02:58:29;14.90;;;8.40;;
76814;SDS011;65768;49.906;19.384;2023-08-31T03:01:12;13.50;;;8.20;;
76814;SDS011;65768;49.906;19.384;2023-08-31T03:03:42;16.60;;;8.60;;
76814;SDS011;65768;49.906;19.384;2023-08-31T03:06:14;12.50;;;7.70;;
76814;SDS011;65768;49.906;19.384;2023-08-31T03:08:44;20.00;;;8.20;;
76814;SDS011;65768;49.906;19.384;2023-08-31T03:11:12;12.40;;;7.00;;
76814;SDS011;65768;49.906;19.384;2023-08-31T03:13:43;12.90;;;7.90;;
76814;SDS011;65768;49.906;19.384;2023-08-31T03:16:11;11.90;;;7.20;;
76814;SDS011;65768;49.906;19.384;2023-08-31T03:18:39;13.90;;;7.90;;
76814;SDS011;65768;49.906;19.384;2023-08-31T03:21:07;13.50;;;7.40;;
76814;SDS011;65768;49.906;19.384;2023-08-31T03:23:37;15.30;;;8.40;;
76814;SDS011;65768;49.906;19.384;2023-08-31T03:26:09;13.50;;;7.60;;
76814;SDS011;65768;49.906;19.384;2023-08-31T03:28:38;13.30;;;8.00;;
76814;SDS011;65768;49.906;19.384;2023-08-31T03:31:11;13.90;;;8.40;;
76814;SDS011;65768;49.906;19.384;2023-08-31T03:33:39;13.70;;;9.20;;
76814;SDS011;65768;49.906;19.384;2023-08-31T03:36:08;13.40;;;7.70;;
76814;SDS011;65768;49.906;19.384;2023-08-31T03:38:37;15.90;;;8.70;;
76814;SDS011;65768;49.906;19.384;2023-08-31T03:41:06;16.00;;;9.00;;
76814;SDS011;65768;49.906;19.384;2023-08-31T03:43:34;15.30;;;8.60;;
76814;SDS011;65768;49.906;19.384;2023-08-31T03:46:03;15.10;;;8.00;;
76814;SDS011;65768;49.906;19.384;2023-08-31T03:48:31;15.00;;;9.00;;
76814;SDS011;65768;49.906;19.384;2023-08-31T03:51:00;15.50;;;9.10;;
76814;SDS011;65768;49.906;19.384;2023-08-31T03:53:29;15.60;;;8.40;;
76814;SDS011;65768;49.906;19.384;2023-08-31T03:55:58;12.80;;;7.80;;
76814;SDS011;65768;49.906;19.384;2023-08-31T03:58:27;13.10;;;7.10;;
76814;SDS011;65768;49.906;19.384;2023-08-31T04:00:56;17.10;;;9.40;;
76814;SDS011;65768;49.906;19.384;2023-08-31T04:03:24;11.70;;;7.20;;
76814;SDS011;65768;49.906;19.384;2023-08-31T04:05:54;13.60;;;8.10;;
76814;SDS011;65768;49.906;19.384;2023-08-31T04:08:25;13.00;;;7.60;;
76814;SDS011;65768;49.906;19.384;2023-08-31T04:10:53;11.70;;;7.40;;
76814;SDS011;65768;49.906;19.384;2023-08-31T04:13:22;10.40;;;6.30;;
76814;SDS011;65768;49.906;19.384;2023-08-31T04:15:52;12.70;;;7.00;;
76814;SDS011;65768;49.906;19.384;2023-08-31T04:18:21;11.30;;;7.10;;
76814;SDS011;65768;49.906;19.384;2023-08-31T04:20:51;12.20;;;6.90;;
76814;SDS011;65768;49.906;19.384;2023-08-31T04:23:21;9.90;;;5.90;;
76814;SDS011;65768;49.906;19.384;2023-08-31T04:25:49;9.70;;;6.30;;
76814;SDS011;65768;49.906;19.384;2023-08-31T04:28:20;9.70;;;5.60;;
76814;SDS011;65768;49.906;19.384;2023-08-31T04:30:49;11.10;;;6.10;;
76814;SDS011;65768;49.906;19.384;2023-08-31T04:33:18;8.80;;;5.30;;
76814;SDS011;65768;49.906;19.384;2023-08-31T04:35:48;9.50;;;5.60;;
76814;SDS011;65768;49.906;19.384;2023-08-31T04:38:17;8.80;;;5.80;;
76814;SDS011;65768;49.906;19.384;2023-08-31T04:40:47;10.20;;;6.40;;
76814;SDS011;65768;49.906;19.384;2023-08-31T04:43:16;8.80;;;5.80;;
76814;SDS011;65768;49.906;19.384;2023-08-31T04:45:45;8.50;;;4.90;;
76814;SDS011;65768;49.906;19.384;2023-08-31T04:48:13;11.00;;;6.30;;
76814;SDS011;65768;49.906;19.384;2023-08-31T04:50:43;11.20;;;6.80;;
76814;SDS011;65768;49.906;19.384;2023-08-31T04:53:13;10.80;;;6.70;;
76814;SDS011;65768;49.906;19.384;2023-08-31T04:55:42;12.70;;;6.70;;
76814;SDS011;65768;49.906;19.384;2023-08-31T04:58:11;11.20;;;7.00;;
76814;SDS011;65768;49.906;19.384;2023-08-31T05:00:39;13.50;;;7.80;;
76814;SDS011;65768;49.906;19.384;2023-08-31T05:03:07;11.50;;;7.10;;
76814;SDS011;65768;49.906;19.384;2023-08-31T05:05:36;14.20;;;7.50;;
76814;SDS011;65768;49.906;19.384;2023-08-31T05:08:04;10.50;;;6.60;;
76814;SDS011;65768;49.906;19.384;2023-08-31T05:10:33;12.80;;;7.50;;
76814;SDS011;65768;49.906;19.384;2023-08-31T05:13:02;11.50;;;6.00;;
76814;SDS011;65768;49.906;19.384;2023-08-31T05:15:34;10.50;;;6.40;;
76814;SDS011;65768;49.906;19.384;2023-08-31T05:18:03;10.80;;;6.90;;
76814;SDS011;65768;49.906;19.384;2023-08-31T05:20:33;11.10;;;6.90;;
76814;SDS011;65768;49.906;19.384;2023-08-31T05:23:01;11.70;;;7.60;;
76814;SDS011;65768;49.906;19.384;2023-08-31T05:25:29;8.40;;;5.40;;
76814;SDS011;65768;49.906;19.384;2023-08-31T05:27:58;7.70;;;5.30;;
76814;SDS011;65768;49.906;19.384;2023-08-31T05:30:26;8.80;;;4.50;;
76814;SDS011;65768;49.906;19.384;2023-08-31T05:32:56;10.70;;;4.90;;
76814;SDS011;65768;49.906;19.384;2023-08-31T05:35:24;7.20;;;4.10;;
76814;SDS011;65768;49.906;19.384;2023-08-31T05:37:53;8.30;;;4.50;;
76814;SDS011;65768;49.906;19.384;2023-08-31T05:40:21;7.70;;;4.50;;
76814;SDS011;65768;49.906;19.384;2023-08-31T05:42:51;8.80;;;4.80;;
76814;SDS011;65768;49.906;19.384;2023-08-31T05:45:19;8.10;;;4.10;;
76814;SDS011;65768;49.906;19.384;2023-08-31T05:47:48;6.30;;;3.90;;
76814;SDS011;65768;49.906;19.384;2023-08-31T05:50:17;6.00;;;4.50;;
76814;SDS011;65768;49.906;19.384;2023-08-31T05:52:46;5.80;;;3.70;;
76814;SDS011;65768;49.906;19.384;2023-08-31T05:55:15;6.20;;;4.00;;
76814;SDS011;65768;49.906;19.384;2023-08-31T05:57:43;4.90;;;3.40;;
76814;SDS011;65768;49.906;19.384;2023-08-31T06:00:12;6.60;;;3.80;;
76814;SDS011;65768;49.906;19.384;2023-08-31T06:02:41;4.70;;;3.30;;
76814;SDS011;65768;49.906;19.384;2023-08-31T06:05:11;5.70;;;3.50;;
76814;SDS011;65768;49.906;19.384;2023-08-31T06:07:44;5.80;;;3.30;;
76814;SDS011;65768;49.906;19.384;2023-08-31T06:10:12;3.60;;;2.70;;
76814;SDS011;65768;49.906;19.384;2023-08-31T06:12:45;5.80;;;3.30;;
76814;SDS011;65768;49.906;19.384;2023-08-31T06:15:14;4.10;;;2.70;;
76814;SDS011;65768;49.906;19.384;2023-08-31T06:17:43;6.40;;;2.60;;
76814;SDS011;65768;49.906;19.384;2023-08-31T06:20:13;2.70;;;1.90;;
76814;SDS011;65768;49.906;19.384;2023-08-31T06:22:43;3.50;;;2.20;;
76814;SDS011;65768;49.906;19.384;2023-08-31T06:25:11;2.70;;;2.00;;
76814;SDS011;65768;49.906;19.384;2023-08-31T06:27:40;2.30;;;1.30;;
76814;SDS011;65768;49.906;19.384;2023-08-31T06:30:11;4.00;;;1.80;;
76814;SDS011;65768;49.906;19.384;2023-08-31T06:32:44;1.80;;;1.20;;
76814;SDS011;65768;49.906;19.384;2023-08-31T06:35:14;3.00;;;1.20;;
76814;SDS011;65768;49.906;19.384;2023-08-31T06:37:49;3.00;;;1.40;;
76814;SDS011;65768;49.906;19.384;2023-08-31T06:40:19;2.60;;;1.00;;
76814;SDS011;65768;49.906;19.384;2023-08-31T06:42:48;2.10;;;1.00;;
76814;SDS011;65768;49.906;19.384;2023-08-31T06:45:16;2.00;;;1.20;;
76814;SDS011;65768;49.906;19.384;2023-08-31T06:47:46;1.70;;;0.90;;
76814;SDS011;65768;49.906;19.384;2023-08-31T06:50:15;2.20;;;1.20;;
76814;SDS011;65768;49.906;19.384;2023-08-31T06:52:46;1.70;;;1.10;;
76814;SDS011;65768;49.906;19.384;2023-08-31T06:55:14;2.10;;;1.10;;
76814;SDS011;65768;49.906;19.384;2023-08-31T06:57:45;1.70;;;0.90;;
76814;SDS011;65768;49.906;19.384;2023-08-31T07:00:14;3.80;;;1.10;;
76814;SDS011;65768;49.906;19.384;2023-08-31T07:02:43;1.80;;;0.90;;
76814;SDS011;65768;49.906;19.384;2023-08-31T07:05:11;2.60;;;1.40;;
76814;SDS011;65768;49.906;19.384;2023-08-31T07:07:40;1.70;;;1.10;;
76814;SDS011;65768;49.906;19.384;2023-08-31T07:10:08;2.40;;;1.40;;
76814;SDS011;65768;49.906;19.384;2023-08-31T07:12:37;4.50;;;1.60;;
76814;SDS011;65768;49.906;19.384;2023-08-31T07:15:06;2.70;;;1.20;;
76814;SDS011;65768;49.906;19.384;2023-08-31T07:17:36;2.00;;;1.30;;
76814;SDS011;65768;49.906;19.384;2023-08-31T07:20:05;2.10;;;1.20;;
76814;SDS011;65768;49.906;19.384;2023-08-31T07:22:35;2.50;;;1.30;;
76814;SDS011;65768;49.906;19.384;2023-08-31T07:25:05;3.20;;;1.50;;
76814;SDS011;65768;49.906;19.384;2023-08-31T07:27:34;2.30;;;1.40;;
76814;SDS011;65768;49.906;19.384;2023-08-31T07:30:03;3.70;;;1.60;;
76814;SDS011;65768;49.906;19.384;2023-08-31T07:32:33;2.70;;;1.50;;
76814;SDS011;65768;49.906;19.384;2023-08-31T07:35:03;3.20;;;1.70;;
76814;SDS011;65768;49.906;19.384;2023-08-31T07:37:34;3.60;;;1.60;;
76814;SDS011;65768;49.906;19.384;2023-08-31T07:40:06;3.70;;;1.30;;
76814;SDS011;65768;49.906;19.384;2023-08-31T07:42:39;3.00;;;1.30;;
76814;SDS011;65768;49.906;19.384;2023-08-31T07:45:09;3.10;;;1.50;;
76814;SDS011;65768;49.906;19.384;2023-08-31T07:47:38;2.60;;;1.40;;
76814;SDS011;65768;49.906;19.384;2023-08-31T07:50:07;2.40;;;1.30;;
76814;SDS011;65768;49.906;19.384;2023-08-31T07:52:35;3.10;;;1.20;;
76814;SDS011;65768;49.906;19.384;2023-08-31T07:55:06;2.90;;;1.30;;
76814;SDS011;65768;49.906;19.384;2023-08-31T07:57:35;3.10;;;1.40;;
76814;SDS011;65768;49.906;19.384;2023-08-31T08:00:05;1.70;;;1.10;;
76814;SDS011;65768;49.906;19.384;2023-08-31T08:02:35;2.40;;;1.40;;
76814;SDS011;65768;49.906;19.384;2023-08-31T08:05:05;2.40;;;1.80;;
76814;SDS011;65768;49.906;19.384;2023-08-31T08:07:35;3.80;;;1.20;;
76814;SDS011;65768;49.906;19.384;2023-08-31T08:10:04;2.30;;;1.30;;
76814;SDS011;65768;49.906;19.384;2023-08-31T08:12:41;3.30;;;1.50;;
76814;SDS011;65768;49.906;19.384;2023-08-31T08:15:14;4.80;;;2.90;;
76814;SDS011;65768;49.906;19.384;2023-08-31T08:17:42;3.70;;;2.10;;
76814;SDS011;65768;49.906;19.384;2023-08-31T08:20:11;3.30;;;1.40;;
76814;SDS011;65768;49.906;19.384;2023-08-31T08:22:40;3.40;;;2.10;;
76814;SDS011;65768;49.906;19.384;2023-08-31T08:25:08;3.10;;;1.60;;
76814;SDS011;65768;49.906;19.384;2023-08-31T08:27:37;3.10;;;1.50;;
76814;SDS011;65768;49.906;19.384;2023-08-31T08:30:05;2.30;;;1.30;;
76814;SDS011;65768;49.906;19.384;2023-08-31T08:32:35;3.00;;;1.20;;
76814;SDS011;65768;49.906;19.384;2023-08-31T08:35:03;4.40;;;1.40;;
76814;SDS011;65768;49.906;19.384;2023-08-31T08:37:32;1.60;;;1.10;;
76814;SDS011;65768;49.906;19.384;2023-08-31T08:40:04;1.80;;;1.20;;
76814;SDS011;65768;49.906;19.384;2023-08-31T08:42:35;3.30;;;1.10;;
76814;SDS011;65768;49.906;19.384;2023-08-31T08:45:15;3.10;;;1.50;;
76814;SDS011;65768;49.906;19.384;2023-08-31T08:47:44;4.30;;;1.70;;
76814;SDS011;65768;49.906;19.384;2023-08-31T08:50:12;2.70;;;1.30;;
76814;SDS011;65768;49.906;19.384;2023-08-31T08:52:42;2.00;;;1.10;;
76814;SDS011;65768;49.906;19.384;2023-08-31T08:55:12;1.90;;;1.20;;
76814;SDS011;65768;49.906;19.384;2023-08-31T08:57:40;3.30;;;1.60;;
76814;SDS011;65768;49.906;19.384;2023-08-31T09:00:09;2.90;;;1.30;;
76814;SDS011;65768;49.906;19.384;2023-08-31T09:02:40;1.70;;;1.10;;
76814;SDS011;65768;49.906;19.384;2023-08-31T09:05:09;2.60;;;1.20;;
76814;SDS011;65768;49.906;19.384;2023-08-31T09:07:38;2.30;;;1.10;;
76814;SDS011;65768;49.906;19.384;2023-08-31T09:10:09;5.50;;;1.20;;
76814;SDS011;65768;49.906;19.384;2023-08-31T09:12:39;2.90;;;1.60;;
76814;SDS011;65768;49.906;19.384;2023-08-31T09:15:08;3.20;;;1.70;;
76814;SDS011;65768;49.906;19.384;2023-08-31T09:17:40;2.80;;;1.80;;
76814;SDS011;65768;49.906;19.384;2023-08-31T09:20:16;2.20;;;1.50;;
76814;SDS011;65768;49.906;19.384;2023-08-31T09:22:44;3.60;;;1.30;;
76814;SDS011;65768;49.906;19.384;2023-08-31T09:25:13;6.30;;;1.80;;
76814;SDS011;65768;49.906;19.384;2023-08-31T09:27:43;3.00;;;1.60;;
76814;SDS011;65768;49.906;19.384;2023-08-31T09:30:13;3.50;;;2.00;;
76814;SDS011;65768;49.906;19.384;2023-08-31T09:32:42;5.30;;;2.00;;
76814;SDS011;65768;49.906;19.384;2023-08-31T09:35:13;2.60;;;1.80;;
76814;SDS011;65768;49.906;19.384;2023-08-31T09:37:42;2.60;;;1.50;;
76814;SDS011;65768;49.906;19.384;2023-08-31T09:40:25;4.40;;;1.80;;
76814;SDS011;65768;49.906;19.384;2023-08-31T09:42:54;2.50;;;1.50;;
76814;SDS011;65768;49.906;19.384;2023-08-31T09:45:25;2.90;;;1.60;;
76814;SDS011;65768;49.906;19.384;2023-08-31T09:47:59;3.60;;;1.70;;
76814;SDS011;65768;49.906;19.384;2023-08-31T09:50:30;4.80;;;1.90;;
76814;SDS011;65768;49.906;19.384;2023-08-31T09:53:01;3.40;;;1.90;;
76814;SDS011;65768;49.906;19.384;2023-08-31T09:55:32;2.00;;;1.70;;
76814;SDS011;65768;49.906;19.384;2023-08-31T09:58:01;3.10;;;2.10;;
76814;SDS011;65768;49.906;19.384;2023-08-31T10:00:32;3.90;;;1.70;;
76814;SDS011;65768;49.906;19.384;2023-08-31T10:03:04;1.70;;;1.30;;
76814;SDS011;65768;49.906;19.384;2023-08-31T10:05:35;2.00;;;1.40;;
76814;SDS011;65768;49.906;19.384;2023-08-31T10:08:06;3.20;;;1.60;;
76814;SDS011;65768;49.906;19.384;2023-08-31T10:10:36;2.60;;;1.70;;
76814;SDS011;65768;49.906;19.384;2023-08-31T10:13:06;4.90;;;2.20;;
76814;SDS011;65768;49.906;19.384;2023-08-31T10:15:36;5.50;;;2.50;;
76814;SDS011;65768;49.906;19.384;2023-08-31T10:18:06;2.30;;;1.60;;
76814;SDS011;65768;49.906;19.384;2023-08-31T10:20:35;3.60;;;1.60;;
76814;SDS011;65768;49.906;19.384;2023-08-31T10:23:04;2.90;;;1.50;;
76814;SDS011;65768;49.906;19.384;2023-08-31T10:25:59;2.60;;;1.60;;
76814;SDS011;65768;49.906;19.384;2023-08-31T10:28:28;3.80;;;1.40;;
76814;SDS011;65768;49.906;19.384;2023-08-31T10:31:09;2.50;;;1.40;;
76814;SDS011;65768;49.906;19.384;2023-08-31T10:33:42;2.20;;;1.60;;
76814;SDS011;65768;49.906;19.384;2023-08-31T10:36:14;3.10;;;1.70;;
76814;SDS011;65768;49.906;19.384;2023-08-31T10:41:25;3.00;;;1.40;;
76814;SDS011;65768;49.906;19.384;2023-08-31T10:43:55;2.70;;;1.50;;
76814;SDS011;65768;49.906;19.384;2023-08-31T10:51:38;3.00;;;1.90;;
76814;SDS011;65768;49.906;19.384;2023-08-31T10:54:31;4.60;;;1.70;;
76814;SDS011;65768;49.906;19.384;2023-08-31T10:57:07;2.70;;;2.00;;
76814;SDS011;65768;49.906;19.384;2023-08-31T10:59:49;3.80;;;2.30;;
76814;SDS011;65768;49.906;19.384;2023-08-31T11:02:37;3.20;;;2.40;;
76814;SDS011;65768;49.906;19.384;2023-08-31T11:05:13;3.90;;;2.40;;
76814;SDS011;65768;49.906;19.384;2023-08-31T11:07:50;3.60;;;2.50;;
76814;SDS011;65768;49.906;19.384;2023-08-31T11:10:27;5.30;;;2.40;;
76814;SDS011;65768;49.906;19.384;2023-08-31T11:12:57;4.80;;;2.70;;
76814;SDS011;65768;49.906;19.384;2023-08-31T11:15:26;3.70;;;2.30;;
76814;SDS011;65768;49.906;19.384;2023-08-31T11:17:55;3.50;;;2.40;;
76814;SDS011;65768;49.906;19.384;2023-08-31T11:20:24;2.90;;;2.00;;
76814;SDS011;65768;49.906;19.384;2023-08-31T11:22:56;3.20;;;2.30;;
76814;SDS011;65768;49.906;19.384;2023-08-31T11:25:25;3.50;;;2.10;;
76814;SDS011;65768;49.906;19.384;2023-08-31T11:27:54;3.00;;;2.20;;
76814;SDS011;65768;49.906;19.384;2023-08-31T11:30:25;4.00;;;2.30;;
76814;SDS011;65768;49.906;19.384;2023-08-31T11:32:54;3.80;;;2.30;;
76814;SDS011;65768;49.906;19.384;2023-08-31T11:35:23;3.50;;;2.20;;
76814;SDS011;65768;49.906;19.384;2023-08-31T11:37:56;3.20;;;2.20;;
76814;SDS011;65768;49.906;19.384;2023-08-31T11:40:28;3.80;;;2.10;;
76814;SDS011;65768;49.906;19.384;2023-08-31T11:42:57;3.50;;;1.90;;
76814;SDS011;65768;49.906;19.384;2023-08-31T11:45:31;4.10;;;2.50;;
76814;SDS011;65768;49.906;19.384;2023-08-31T11:48:01;3.20;;;1.90;;
76814;SDS011;65768;49.906;19.384;2023-08-31T11:50:31;3.20;;;1.70;;
76814;SDS011;65768;49.906;19.384;2023-08-31T11:52:59;3.30;;;2.10;;
76814;SDS011;65768;49.906;19.384;2023-08-31T11:55:29;2.50;;;2.10;;
76814;SDS011;65768;49.906;19.384;2023-08-31T11:57:57;3.60;;;2.00;;
76814;SDS011;65768;49.906;19.384;2023-08-31T12:00:26;3.50;;;2.00;;
76814;SDS011;65768;49.906;19.384;2023-08-31T12:02:57;2.70;;;2.00;;
76814;SDS011;65768;49.906;19.384;2023-08-31T12:05:44;3.00;;;2.00;;
76814;SDS011;65768;49.906;19.384;2023-08-31T12:08:14;2.80;;;1.60;;
76814;SDS011;65768;49.906;19.384;2023-08-31T12:10:46;3.90;;;2.10;;
76814;SDS011;65768;49.906;19.384;2023-08-31T12:13:15;2.70;;;2.00;;
76814;SDS011;65768;49.906;19.384;2023-08-31T12:15:44;2.20;;;1.60;;
76814;SDS011;65768;49.906;19.384;2023-08-31T12:18:14;4.60;;;2.00;;
76814;SDS011;65768;49.906;19.384;2023-08-31T12:20:52;2.70;;;1.80;;
76814;SDS011;65768;49.906;19.384;2023-08-31T12:23:22;2.10;;;1.50;;
76814;SDS011;65768;49.906;19.384;2023-08-31T12:25:51;3.80;;;1.70;;
76814;SDS011;65768;49.906;19.384;2023-08-31T12:28:25;2.10;;;1.40;;
76814;SDS011;65768;49.906;19.384;2023-08-31T12:30:54;2.10;;;1.30;;
76814;SDS011;65768;49.906;19.384;2023-08-31T12:33:24;2.00;;;1.50;;
76814;SDS011;65768;49.906;19.384;2023-08-31T12:35:53;2.70;;;1.60;;
76814;SDS011;65768;49.906;19.384;2023-08-31T12:38:22;2.70;;;1.90;;
76814;SDS011;65768;49.906;19.384;2023-08-31T12:40:51;2.80;;;1.90;;
76814;SDS011;65768;49.906;19.384;2023-08-31T12:43:21;2.50;;;1.40;;
76814;SDS011;65768;49.906;19.384;2023-08-31T12:45:50;3.80;;;1.60;;
76814;SDS011;65768;49.906;19.384;2023-08-31T12:48:19;2.40;;;1.60;;
76814;SDS011;65768;49.906;19.384;2023-08-31T12:50:48;2.20;;;1.40;;
76814;SDS011;65768;49.906;19.384;2023-08-31T12:53:17;2.60;;;1.50;;
76814;SDS011;65768;49.906;19.384;2023-08-31T12:55:46;2.70;;;1.20;;
76814;SDS011;65768;49.906;19.384;2023-08-31T12:58:15;1.90;;;1.30;;
76814;SDS011;65768;49.906;19.384;2023-08-31T13:00:45;3.50;;;1.50;;
76814;SDS011;65768;49.906;19.384;2023-08-31T13:03:17;1.70;;;1.10;;
76814;SDS011;65768;49.906;19.384;2023-08-31T13:05:46;2.90;;;1.70;;
76814;SDS011;65768;49.906;19.384;2023-08-31T13:08:15;2.50;;;1.60;;
76814;SDS011;65768;49.906;19.384;2023-08-31T13:10:50;3.60;;;1.90;;
76814;SDS011;65768;49.906;19.384;2023-08-31T13:13:20;2.70;;;1.70;;
76814;SDS011;65768;49.906;19.384;2023-08-31T13:15:49;2.90;;;1.40;;
76814;SDS011;65768;49.906;19.384;2023-08-31T13:18:18;2.30;;;1.40;;
76814;SDS011;65768;49.906;19.384;2023-08-31T13:20:53;3.20;;;1.70;;
76814;SDS011;65768;49.906;19.384;2023-08-31T13:23:24;2.40;;;1.60;;
76814;SDS011;65768;49.906;19.384;2023-08-31T13:25:52;1.80;;;1.40;;
76814;SDS011;65768;49.906;19.384;2023-08-31T13:28:21;3.00;;;1.70;;
76814;SDS011;65768;49.906;19.384;2023-08-31T13:30:49;2.30;;;1.60;;
76814;SDS011;65768;49.906;19.384;2023-08-31T13:33:18;2.50;;;1.80;;
76814;SDS011;65768;49.906;19.384;2023-08-31T13:35:46;3.60;;;1.60;;
76814;SDS011;65768;49.906;19.384;2023-08-31T13:38:15;2.10;;;1.50;;
76814;SDS011;65768;49.906;19.384;2023-08-31T13:40:43;2.40;;;1.40;;
76814;SDS011;65768;49.906;19.384;2023-08-31T13:43:11;3.70;;;2.10;;
76814;SDS011;65768;49.906;19.384;2023-08-31T13:45:39;2.20;;;1.50;;
76814;SDS011;65768;49.906;19.384;2023-08-31T13:48:07;3.80;;;1.90;;
76814;SDS011;65768;49.906;19.384;2023-08-31T13:50:36;2.40;;;1.50;;
76814;SDS011;65768;49.906;19.384;2023-08-31T13:53:05;4.20;;;1.90;;
76814;SDS011;65768;49.906;19.384;2023-08-31T13:55:33;2.80;;;1.80;;
76814;SDS011;65768;49.906;19.384;2023-08-31T13:58:05;2.70;;;1.50;;
76814;SDS011;65768;49.906;19.384;2023-08-31T14:00:35;3.00;;;1.50;;
76814;SDS011;65768;49.906;19.384;2023-08-31T14:03:04;2.50;;;1.30;;
76814;SDS011;65768;49.906;19.384;2023-08-31T14:05:33;4.10;;;1.90;;
76814;SDS011;65768;49.906;19.384;2023-08-31T14:08:01;3.00;;;1.40;;
76814;SDS011;65768;49.906;19.384;2023-08-31T14:10:32;3.40;;;1.70;;
76814;SDS011;65768;49.906;19.384;2023-08-31T14:13:01;2.10;;;1.50;;
76814;SDS011;65768;49.906;19.384;2023-08-31T14:15:29;3.20;;;1.70;;
76814;SDS011;65768;49.906;19.384;2023-08-31T14:17:58;3.10;;;1.40;;
76814;SDS011;65768;49.906;19.384;2023-08-31T14:20:27;3.30;;;1.60;;
76814;SDS011;65768;49.906;19.384;2023-08-31T14:22:55;2.80;;;1.80;;
76814;SDS011;65768;49.906;19.384;2023-08-31T14:25:26;4.10;;;1.90;;
76814;SDS011;65768;49.906;19.384;2023-08-31T14:27:55;3.30;;;2.10;;
76814;SDS011;65768;49.906;19.384;2023-08-31T14:30:24;2.60;;;1.60;;
76814;SDS011;65768;49.906;19.384;2023-08-31T14:32:53;3.10;;;1.90;;
76814;SDS011;65768;49.906;19.384;2023-08-31T14:35:23;3.50;;;2.10;;
76814;SDS011;65768;49.906;19.384;2023-08-31T14:37:51;3.70;;;2.10;;
76814;SDS011;65768;49.906;19.384;2023-08-31T14:40:20;3.60;;;2.40;;
76814;SDS011;65768;49.906;19.384;2023-08-31T14:42:49;3.20;;;2.40;;
76814;SDS011;65768;49.906;19.384;2023-08-31T14:45:18;5.10;;;2.60;;
76814;SDS011;65768;49.906;19.384;2023-08-31T14:47:48;3.60;;;2.40;;
76814;SDS011;65768;49.906;19.384;2023-08-31T14:50:17;4.40;;;2.60;;
76814;SDS011;65768;49.906;19.384;2023-08-31T14:52:46;3.20;;;2.30;;
76814;SDS011;65768;49.906;19.384;2023-08-31T14:55:17;5.10;;;2.60;;
76814;SDS011;65768;49.906;19.384;2023-08-31T14:57:45;4.60;;;2.10;;
76814;SDS011;65768;49.906;19.384;2023-08-31T15:00:14;3.20;;;2.00;;
76814;SDS011;65768;49.906;19.384;2023-08-31T15:02:43;4.10;;;2.20;;
76814;SDS011;65768;49.906;19.384;2023-08-31T15:05:11;5.60;;;1.80;;
76814;SDS011;65768;49.906;19.384;2023-08-31T15:07:40;2.70;;;2.10;;